sensor_id;sensor_type;location;lat;lon;timestamp;P1;durP1;ratioP1;P2;durP2;ratioP2
9370;SDS011;4725;48.384;8.984;2022-08-19T00:01:31;0.45;;;0.45;;
9370;SDS011;4725;48.384;8.984;2022-08-19T00:04:00;0.50;;;0.50;;
9370;SDS011;4725;48.384;8.984;2022-08-19T00:06:29;1.08;;;1.08;;
9370;SDS011;4725;48.384;8.984;2022-08-19T00:08:57;0.60;;;0.60;;
9370;SDS011;4725;48.384;8.984;2022-08-19T00:11:27;0.50;;;0.50;;
9370;SDS011;4725;48.384;8.984;2022-08-19T00:13:54;0.47;;;0.47;;
9370;SDS011;4725;48.384;8.984;2022-08-19T00:16:21;0.50;;;0.50;;
9370;SDS011;4725;48.384;8.984;2022-08-19T00:18:49;0.40;;;0.40;;
9370;SDS011;4725;48.384;8.984;2022-08-19T00:21:16;0.50;;;0.50;;
9370;SDS011;4725;48.384;8.984;2022-08-19T00:23:43;0.45;;;0.45;;
9370;SDS011;4725;48.384;8.984;2022-08-19T00:26:10;1.90;;;1.77;;
9370;SDS011;4725;48.384;8.984;2022-08-19T00:28:39;0.50;;;0.50;;
9370;SDS011;4725;48.384;8.984;2022-08-19T00:31:06;0.40;;;0.40;;
9370;SDS011;4725;48.384;8.984;2022-08-19T00:33:34;0.55;;;0.55;;
9370;SDS011;4725;48.384;8.984;2022-08-19T00:36:02;0.50;;;0.50;;
9370;SDS011;4725;48.384;8.984;2022-08-19T00:38:32;0.50;;;0.50;;
9370;SDS011;4725;48.384;8.984;2022-08-19T00:40:59;0.70;;;0.70;;
9370;SDS011;4725;48.384;8.984;2022-08-19T00:43:26;0.50;;;0.50;;
9370;SDS011;4725;48.384;8.984;2022-08-19T00:45:55;0.50;;;0.50;;
9370;SDS011;4725;48.384;8.984;2022-08-19T00:48:22;0.80;;;0.80;;
9370;SDS011;4725;48.384;8.984;2022-08-19T00:50:49;0.50;;;0.50;;
9370;SDS011;4725;48.384;8.984;2022-08-19T00:53:19;0.50;;;0.50;;
9370;SDS011;4725;48.384;8.984;2022-08-19T00:55:50;0.50;;;0.50;;
9370;SDS011;4725;48.384;8.984;2022-08-19T00:58:19;0.50;;;0.50;;
9370;SDS011;4725;48.384;8.984;2022-08-19T01:00:50;0.50;;;0.50;;
9370;SDS011;4725;48.384;8.984;2022-08-19T01:03:18;0.47;;;0.47;;
9370;SDS011;4725;48.384;8.984;2022-08-19T01:05:47;0.50;;;0.50;;
9370;SDS011;4725;48.384;8.984;2022-08-19T01:08:17;0.40;;;0.40;;
9370;SDS011;4725;48.384;8.984;2022-08-19T01:10:45;0.50;;;0.50;;
9370;SDS011;4725;48.384;8.984;2022-08-19T01:13:15;0.50;;;0.50;;
9370;SDS011;4725;48.384;8.984;2022-08-19T01:15:43;1.48;;;0.80;;
9370;SDS011;4725;48.384;8.984;2022-08-19T01:18:15;0.50;;;0.50;;
9370;SDS011;4725;48.384;8.984;2022-08-19T01:20:45;0.60;;;0.60;;
9370;SDS011;4725;48.384;8.984;2022-08-19T01:23:14;0.50;;;0.50;;
9370;SDS011;4725;48.384;8.984;2022-08-19T01:25:43;0.50;;;0.50;;
9370;SDS011;4725;48.384;8.984;2022-08-19T01:28:16;0.60;;;0.60;;
9370;SDS011;4725;48.384;8.984;2022-08-19T01:30:44;0.50;;;0.50;;
9370;SDS011;4725;48.384;8.984;2022-08-19T01:33:12;0.50;;;0.50;;
9370;SDS011;4725;48.384;8.984;2022-08-19T01:35:39;0.93;;;0.93;;
9370;SDS011;4725;48.384;8.984;2022-08-19T01:38:08;0.50;;;0.50;;
9370;SDS011;4725;48.384;8.984;2022-08-19T01:40:39;0.50;;;0.50;;
9370;SDS011;4725;48.384;8.984;2022-08-19T01:43:07;0.50;;;0.50;;
9370;SDS011;4725;48.384;8.984;2022-08-19T01:45:34;0.50;;;0.50;;
9370;SDS011;4725;48.384;8.984;2022-08-19T01:48:05;0.50;;;0.50;;
9370;SDS011;4725;48.384;8.984;2022-08-19T01:50:33;0.40;;;0.40;;
9370;SDS011;4725;48.384;8.984;2022-08-19T01:53:01;0.40;;;0.40;;
9370;SDS011;4725;48.384;8.984;2022-08-19T01:55:29;1.27;;;1.27;;
9370;SDS011;4725;48.384;8.984;2022-08-19T01:57:59;0.50;;;0.50;;
9370;SDS011;4725;48.384;8.984;2022-08-19T02:00:30;0.50;;;0.50;;
9370;SDS011;4725;48.384;8.984;2022-08-19T02:02:58;0.60;;;0.60;;
9370;SDS011;4725;48.384;8.984;2022-08-19T02:05:26;2.40;;;1.63;;
9370;SDS011;4725;48.384;8.984;2022-08-19T02:07:54;0.50;;;0.50;;
9370;SDS011;4725;48.384;8.984;2022-08-19T02:10:21;0.50;;;0.50;;
9370;SDS011;4725;48.384;8.984;2022-08-19T02:12:49;0.60;;;0.60;;
9370;SDS011;4725;48.384;8.984;2022-08-19T02:15:18;0.50;;;0.50;;
9370;SDS011;4725;48.384;8.984;2022-08-19T02:17:45;0.73;;;0.73;;
9370;SDS011;4725;48.384;8.984;2022-08-19T02:20:13;0.55;;;0.55;;
9370;SDS011;4725;48.384;8.984;2022-08-19T02:22:40;0.43;;;0.43;;
9370;SDS011;4725;48.384;8.984;2022-08-19T02:25:08;0.60;;;0.60;;
9370;SDS011;4725;48.384;8.984;2022-08-19T02:27:35;0.40;;;0.40;;
9370;SDS011;4725;48.384;8.984;2022-08-19T02:30:04;0.47;;;0.47;;
9370;SDS011;4725;48.384;8.984;2022-08-19T02:32:34;1.77;;;1.67;;
9370;SDS011;4725;48.384;8.984;2022-08-19T02:35:01;0.40;;;0.40;;
9370;SDS011;4725;48.384;8.984;2022-08-19T02:37:28;0.50;;;0.50;;
9370;SDS011;4725;48.384;8.984;2022-08-19T02:40:13;0.43;;;0.43;;
9370;SDS011;4725;48.384;8.984;2022-08-19T02:42:42;0.50;;;0.50;;
9370;SDS011;4725;48.384;8.984;2022-08-19T02:45:10;1.15;;;1.13;;
9370;SDS011;4725;48.384;8.984;2022-08-19T02:47:39;0.50;;;0.50;;
9370;SDS011;4725;48.384;8.984;2022-08-19T02:50:06;0.57;;;0.57;;
9370;SDS011;4725;48.384;8.984;2022-08-19T02:52:34;0.40;;;0.40;;
9370;SDS011;4725;48.384;8.984;2022-08-19T02:55:01;0.50;;;0.50;;
9370;SDS011;4725;48.384;8.984;2022-08-19T02:57:29;0.40;;;0.40;;
9370;SDS011;4725;48.384;8.984;2022-08-19T02:59:57;0.40;;;0.40;;
9370;SDS011;4725;48.384;8.984;2022-08-19T03:02:26;0.50;;;0.50;;
9370;SDS011;4725;48.384;8.984;2022-08-19T03:04:54;0.43;;;0.43;;
9370;SDS011;4725;48.384;8.984;2022-08-19T03:07:21;2.17;;;1.15;;
9370;SDS011;4725;48.384;8.984;2022-08-19T03:09:48;0.50;;;0.50;;
9370;SDS011;4725;48.384;8.984;2022-08-19T03:12:15;0.50;;;0.50;;
9370;SDS011;4725;48.384;8.984;2022-08-19T03:14:42;0.50;;;0.50;;
9370;SDS011;4725;48.384;8.984;2022-08-19T03:17:10;0.50;;;0.50;;
9370;SDS011;4725;48.384;8.984;2022-08-19T03:19:37;0.68;;;0.68;;
9370;SDS011;4725;48.384;8.984;2022-08-19T03:22:06;0.47;;;0.47;;
9370;SDS011;4725;48.384;8.984;2022-08-19T03:24:33;0.50;;;0.50;;
9370;SDS011;4725;48.384;8.984;2022-08-19T03:26:59;0.40;;;0.40;;
9370;SDS011;4725;48.384;8.984;2022-08-19T03:29:30;0.50;;;0.50;;
9370;SDS011;4725;48.384;8.984;2022-08-19T03:31:58;0.50;;;0.50;;
9370;SDS011;4725;48.384;8.984;2022-08-19T03:34:27;0.45;;;0.45;;
9370;SDS011;4725;48.384;8.984;2022-08-19T03:36:56;0.70;;;0.70;;
9370;SDS011;4725;48.384;8.984;2022-08-19T03:39:26;0.60;;;0.60;;
9370;SDS011;4725;48.384;8.984;2022-08-19T03:41:53;0.50;;;0.50;;
9370;SDS011;4725;48.384;8.984;2022-08-19T03:44:22;1.05;;;1.05;;
9370;SDS011;4725;48.384;8.984;2022-08-19T03:46:50;0.70;;;0.70;;
9370;SDS011;4725;48.384;8.984;2022-08-19T03:49:18;0.40;;;0.40;;
9370;SDS011;4725;48.384;8.984;2022-08-19T03:51:47;0.40;;;0.40;;
9370;SDS011;4725;48.384;8.984;2022-08-19T03:54:16;0.40;;;0.40;;
9370;SDS011;4725;48.384;8.984;2022-08-19T03:56:46;0.40;;;0.40;;
9370;SDS011;4725;48.384;8.984;2022-08-19T03:59:15;0.50;;;0.50;;
9370;SDS011;4725;48.384;8.984;2022-08-19T04:01:43;0.40;;;0.40;;
9370;SDS011;4725;48.384;8.984;2022-08-19T04:04:10;0.50;;;0.50;;
9370;SDS011;4725;48.384;8.984;2022-08-19T04:06:38;0.40;;;0.40;;
9370;SDS011;4725;48.384;8.984;2022-08-19T04:09:06;0.50;;;0.50;;
9370;SDS011;4725;48.384;8.984;2022-08-19T04:11:35;0.45;;;0.45;;
9370;SDS011;4725;48.384;8.984;2022-08-19T04:14:08;0.50;;;0.50;;
9370;SDS011;4725;48.384;8.984;2022-08-19T04:16:36;0.70;;;0.70;;
9370;SDS011;4725;48.384;8.984;2022-08-19T04:19:04;0.60;;;0.60;;
9370;SDS011;4725;48.384;8.984;2022-08-19T04:21:31;0.50;;;0.50;;
9370;SDS011;4725;48.384;8.984;2022-08-19T04:23:59;0.40;;;0.40;;
9370;SDS011;4725;48.384;8.984;2022-08-19T04:26:26;0.50;;;0.50;;
9370;SDS011;4725;48.384;8.984;2022-08-19T04:28:57;1.98;;;1.15;;
9370;SDS011;4725;48.384;8.984;2022-08-19T04:31:26;0.40;;;0.40;;
9370;SDS011;4725;48.384;8.984;2022-08-19T04:33:56;0.98;;;0.98;;
9370;SDS011;4725;48.384;8.984;2022-08-19T04:36:26;0.40;;;0.40;;
9370;SDS011;4725;48.384;8.984;2022-08-19T04:38:55;0.50;;;0.50;;
9370;SDS011;4725;48.384;8.984;2022-08-19T04:41:24;0.50;;;0.50;;
9370;SDS011;4725;48.384;8.984;2022-08-19T04:44:10;0.70;;;0.70;;
9370;SDS011;4725;48.384;8.984;2022-08-19T04:46:39;0.60;;;0.60;;
9370;SDS011;4725;48.384;8.984;2022-08-19T04:49:06;0.50;;;0.50;;
9370;SDS011;4725;48.384;8.984;2022-08-19T04:51:34;0.50;;;0.50;;
9370;SDS011;4725;48.384;8.984;2022-08-19T04:54:02;0.60;;;0.60;;
9370;SDS011;4725;48.384;8.984;2022-08-19T04:56:30;0.55;;;0.55;;
9370;SDS011;4725;48.384;8.984;2022-08-19T04:58:57;0.75;;;0.75;;
9370;SDS011;4725;48.384;8.984;2022-08-19T05:01:28;0.57;;;0.55;;
9370;SDS011;4725;48.384;8.984;2022-08-19T05:03:58;0.40;;;0.40;;
9370;SDS011;4725;48.384;8.984;2022-08-19T05:06:28;0.50;;;0.50;;
9370;SDS011;4725;48.384;8.984;2022-08-19T05:08:57;0.40;;;0.40;;
9370;SDS011;4725;48.384;8.984;2022-08-19T05:11:25;0.50;;;0.50;;
9370;SDS011;4725;48.384;8.984;2022-08-19T05:13:54;0.50;;;0.50;;
9370;SDS011;4725;48.384;8.984;2022-08-19T05:16:21;0.47;;;0.47;;
9370;SDS011;4725;48.384;8.984;2022-08-19T05:18:49;0.50;;;0.50;;
9370;SDS011;4725;48.384;8.984;2022-08-19T05:21:35;0.40;;;0.40;;
9370;SDS011;4725;48.384;8.984;2022-08-19T05:24:21;0.60;;;0.60;;
9370;SDS011;4725;48.384;8.984;2022-08-19T05:26:50;0.40;;;0.40;;
9370;SDS011;4725;48.384;8.984;2022-08-19T05:29:21;0.40;;;0.40;;
9370;SDS011;4725;48.384;8.984;2022-08-19T05:31:50;0.50;;;0.50;;
9370;SDS011;4725;48.384;8.984;2022-08-19T05:34:18;0.40;;;0.40;;
9370;SDS011;4725;48.384;8.984;2022-08-19T05:36:49;0.40;;;0.40;;
9370;SDS011;4725;48.384;8.984;2022-08-19T05:39:22;0.50;;;0.50;;
9370;SDS011;4725;48.384;8.984;2022-08-19T05:41:51;0.55;;;0.55;;
9370;SDS011;4725;48.384;8.984;2022-08-19T05:44:22;1.83;;;1.75;;
9370;SDS011;4725;48.384;8.984;2022-08-19T05:46:50;0.40;;;0.40;;
9370;SDS011;4725;48.384;8.984;2022-08-19T05:49:19;0.40;;;0.40;;
9370;SDS011;4725;48.384;8.984;2022-08-19T05:51:49;0.55;;;0.55;;
9370;SDS011;4725;48.384;8.984;2022-08-19T05:54:16;1.10;;;1.02;;
9370;SDS011;4725;48.384;8.984;2022-08-19T05:56:44;0.93;;;0.93;;
9370;SDS011;4725;48.384;8.984;2022-08-19T05:59:13;0.43;;;0.43;;
9370;SDS011;4725;48.384;8.984;2022-08-19T06:01:42;0.40;;;0.40;;
9370;SDS011;4725;48.384;8.984;2022-08-19T06:04:11;0.40;;;0.40;;
9370;SDS011;4725;48.384;8.984;2022-08-19T06:06:39;0.47;;;0.47;;
9370;SDS011;4725;48.384;8.984;2022-08-19T06:09:08;0.65;;;0.65;;
9370;SDS011;4725;48.384;8.984;2022-08-19T06:11:36;0.50;;;0.50;;
9370;SDS011;4725;48.384;8.984;2022-08-19T06:14:05;0.40;;;0.40;;
9370;SDS011;4725;48.384;8.984;2022-08-19T06:16:35;0.50;;;0.50;;
9370;SDS011;4725;48.384;8.984;2022-08-19T06:19:08;0.50;;;0.50;;
9370;SDS011;4725;48.384;8.984;2022-08-19T06:21:37;0.40;;;0.40;;
9370;SDS011;4725;48.384;8.984;2022-08-19T06:24:06;0.50;;;0.50;;
9370;SDS011;4725;48.384;8.984;2022-08-19T06:26:37;0.50;;;0.50;;
9370;SDS011;4725;48.384;8.984;2022-08-19T06:29:05;0.73;;;0.73;;
9370;SDS011;4725;48.384;8.984;2022-08-19T06:31:33;0.57;;;0.57;;
9370;SDS011;4725;48.384;8.984;2022-08-19T06:34:02;0.50;;;0.50;;
9370;SDS011;4725;48.384;8.984;2022-08-19T06:36:32;1.25;;;1.25;;
9370;SDS011;4725;48.384;8.984;2022-08-19T06:39:00;1.05;;;1.05;;
9370;SDS011;4725;48.384;8.984;2022-08-19T06:41:29;0.47;;;0.47;;
9370;SDS011;4725;48.384;8.984;2022-08-19T06:43:57;0.98;;;0.98;;
9370;SDS011;4725;48.384;8.984;2022-08-19T06:46:24;0.50;;;0.50;;
9370;SDS011;4725;48.384;8.984;2022-08-19T06:48:52;0.50;;;0.50;;
9370;SDS011;4725;48.384;8.984;2022-08-19T06:51:19;0.90;;;0.90;;
9370;SDS011;4725;48.384;8.984;2022-08-19T06:53:47;0.68;;;0.68;;
9370;SDS011;4725;48.384;8.984;2022-08-19T06:56:15;0.70;;;0.70;;
9370;SDS011;4725;48.384;8.984;2022-08-19T06:58:45;0.73;;;0.73;;
9370;SDS011;4725;48.384;8.984;2022-08-19T07:01:12;0.88;;;0.88;;
9370;SDS011;4725;48.384;8.984;2022-08-19T07:03:39;0.55;;;0.55;;
9370;SDS011;4725;48.384;8.984;2022-08-19T07:06:06;0.70;;;0.70;;
9370;SDS011;4725;48.384;8.984;2022-08-19T07:08:36;0.40;;;0.40;;
9370;SDS011;4725;48.384;8.984;2022-08-19T07:11:05;0.85;;;0.85;;
9370;SDS011;4725;48.384;8.984;2022-08-19T07:13:32;0.50;;;0.50;;
9370;SDS011;4725;48.384;8.984;2022-08-19T07:16:04;0.50;;;0.50;;
9370;SDS011;4725;48.384;8.984;2022-08-19T07:18:31;0.57;;;0.57;;
9370;SDS011;4725;48.384;8.984;2022-08-19T07:21:02;0.40;;;0.40;;
9370;SDS011;4725;48.384;8.984;2022-08-19T07:23:30;0.60;;;0.60;;
9370;SDS011;4725;48.384;8.984;2022-08-19T07:25:58;0.40;;;0.40;;
9370;SDS011;4725;48.384;8.984;2022-08-19T07:28:31;0.50;;;0.50;;
9370;SDS011;4725;48.384;8.984;2022-08-19T07:30:58;0.70;;;0.70;;
9370;SDS011;4725;48.384;8.984;2022-08-19T07:33:28;0.50;;;0.50;;
9370;SDS011;4725;48.384;8.984;2022-08-19T07:35:57;0.90;;;0.90;;
9370;SDS011;4725;48.384;8.984;2022-08-19T07:38:24;0.80;;;0.80;;
9370;SDS011;4725;48.384;8.984;2022-08-19T07:40:51;0.65;;;0.65;;
9370;SDS011;4725;48.384;8.984;2022-08-19T07:43:19;0.50;;;0.50;;
9370;SDS011;4725;48.384;8.984;2022-08-19T07:45:50;0.77;;;0.77;;
9370;SDS011;4725;48.384;8.984;2022-08-19T07:48:18;0.40;;;0.40;;
9370;SDS011;4725;48.384;8.984;2022-08-19T07:50:46;0.50;;;0.50;;
9370;SDS011;4725;48.384;8.984;2022-08-19T07:53:14;1.63;;;1.52;;
9370;SDS011;4725;48.384;8.984;2022-08-19T07:55:41;0.93;;;0.60;;
9370;SDS011;4725;48.384;8.984;2022-08-19T07:58:08;0.50;;;0.50;;
9370;SDS011;4725;48.384;8.984;2022-08-19T08:00:35;0.50;;;0.50;;
9370;SDS011;4725;48.384;8.984;2022-08-19T08:03:02;0.70;;;0.70;;
9370;SDS011;4725;48.384;8.984;2022-08-19T08:05:29;0.70;;;0.70;;
9370;SDS011;4725;48.384;8.984;2022-08-19T08:08:16;0.55;;;0.55;;
9370;SDS011;4725;48.384;8.984;2022-08-19T08:11:00;0.50;;;0.50;;
9370;SDS011;4725;48.384;8.984;2022-08-19T08:13:28;0.50;;;0.50;;
9370;SDS011;4725;48.384;8.984;2022-08-19T08:15:55;0.40;;;0.40;;
9370;SDS011;4725;48.384;8.984;2022-08-19T08:18:23;0.82;;;0.82;;
9370;SDS011;4725;48.384;8.984;2022-08-19T08:20:50;0.50;;;0.50;;
9370;SDS011;4725;48.384;8.984;2022-08-19T08:23:18;0.80;;;0.80;;
9370;SDS011;4725;48.384;8.984;2022-08-19T08:25:49;0.80;;;0.80;;
9370;SDS011;4725;48.384;8.984;2022-08-19T08:28:17;0.40;;;0.40;;
9370;SDS011;4725;48.384;8.984;2022-08-19T08:30:45;0.50;;;0.50;;
9370;SDS011;4725;48.384;8.984;2022-08-19T08:33:13;0.70;;;0.70;;
9370;SDS011;4725;48.384;8.984;2022-08-19T08:35:43;0.60;;;0.60;;
9370;SDS011;4725;48.384;8.984;2022-08-19T08:38:10;0.50;;;0.50;;
9370;SDS011;4725;48.384;8.984;2022-08-19T08:40:42;0.50;;;0.50;;
9370;SDS011;4725;48.384;8.984;2022-08-19T08:43:14;2.83;;;2.63;;
9370;SDS011;4725;48.384;8.984;2022-08-19T08:45:50;0.40;;;0.40;;
9370;SDS011;4725;48.384;8.984;2022-08-19T08:48:24;0.43;;;0.43;;
9370;SDS011;4725;48.384;8.984;2022-08-19T08:50:57;0.40;;;0.40;;
9370;SDS011;4725;48.384;8.984;2022-08-19T08:53:28;0.40;;;0.40;;
9370;SDS011;4725;48.384;8.984;2022-08-19T08:55:58;0.50;;;0.50;;
9370;SDS011;4725;48.384;8.984;2022-08-19T08:58:29;0.50;;;0.50;;
9370;SDS011;4725;48.384;8.984;2022-08-19T09:01:08;0.40;;;0.40;;
9370;SDS011;4725;48.384;8.984;2022-08-19T09:03:37;1.30;;;1.27;;
9370;SDS011;4725;48.384;8.984;2022-08-19T09:06:07;0.40;;;0.40;;
9370;SDS011;4725;48.384;8.984;2022-08-19T09:08:43;0.50;;;0.50;;
9370;SDS011;4725;48.384;8.984;2022-08-19T09:11:18;0.40;;;0.40;;
9370;SDS011;4725;48.384;8.984;2022-08-19T09:13:53;0.50;;;0.50;;
9370;SDS011;4725;48.384;8.984;2022-08-19T09:16:29;6.60;;;1.65;;
9370;SDS011;4725;48.384;8.984;2022-08-19T09:18:57;0.40;;;0.40;;
9370;SDS011;4725;48.384;8.984;2022-08-19T09:21:27;0.40;;;0.40;;
9370;SDS011;4725;48.384;8.984;2022-08-19T09:23:54;0.43;;;0.43;;
9370;SDS011;4725;48.384;8.984;2022-08-19T09:26:24;0.50;;;0.50;;
9370;SDS011;4725;48.384;8.984;2022-08-19T09:28:51;0.77;;;0.77;;
9370;SDS011;4725;48.384;8.984;2022-08-19T09:31:20;0.47;;;0.47;;
9370;SDS011;4725;48.384;8.984;2022-08-19T09:33:50;0.50;;;0.50;;
9370;SDS011;4725;48.384;8.984;2022-08-19T09:36:18;0.40;;;0.40;;
9370;SDS011;4725;48.384;8.984;2022-08-19T09:38:47;0.40;;;0.40;;
9370;SDS011;4725;48.384;8.984;2022-08-19T09:41:15;0.50;;;0.50;;
9370;SDS011;4725;48.384;8.984;2022-08-19T09:43:46;0.50;;;0.50;;
9370;SDS011;4725;48.384;8.984;2022-08-19T09:46:18;0.60;;;0.60;;
9370;SDS011;4725;48.384;8.984;2022-08-19T09:48:47;0.43;;;0.43;;
9370;SDS011;4725;48.384;8.984;2022-08-19T09:51:16;0.40;;;0.40;;
9370;SDS011;4725;48.384;8.984;2022-08-19T09:53:45;0.50;;;0.50;;
9370;SDS011;4725;48.384;8.984;2022-08-19T09:56:15;0.50;;;0.50;;
9370;SDS011;4725;48.384;8.984;2022-08-19T09:58:42;0.50;;;0.50;;
9370;SDS011;4725;48.384;8.984;2022-08-19T10:01:14;0.50;;;0.50;;
9370;SDS011;4725;48.384;8.984;2022-08-19T10:03:44;0.50;;;0.50;;
9370;SDS011;4725;48.384;8.984;2022-08-19T10:06:14;1.60;;;1.58;;
9370;SDS011;4725;48.384;8.984;2022-08-19T10:08:42;0.75;;;0.75;;
9370;SDS011;4725;48.384;8.984;2022-08-19T10:11:09;0.40;;;0.40;;
9370;SDS011;4725;48.384;8.984;2022-08-19T10:13:36;0.47;;;0.47;;
9370;SDS011;4725;48.384;8.984;2022-08-19T10:16:04;0.40;;;0.40;;
9370;SDS011;4725;48.384;8.984;2022-08-19T10:18:34;0.50;;;0.50;;
9370;SDS011;4725;48.384;8.984;2022-08-19T10:21:03;0.50;;;0.50;;
9370;SDS011;4725;48.384;8.984;2022-08-19T10:23:33;0.68;;;0.68;;
9370;SDS011;4725;48.384;8.984;2022-08-19T10:26:01;0.50;;;0.50;;
9370;SDS011;4725;48.384;8.984;2022-08-19T10:28:31;0.77;;;0.77;;
9370;SDS011;4725;48.384;8.984;2022-08-19T10:31:02;0.50;;;0.50;;
9370;SDS011;4725;48.384;8.984;2022-08-19T10:33:31;0.50;;;0.50;;
9370;SDS011;4725;48.384;8.984;2022-08-19T10:36:00;0.40;;;0.40;;
9370;SDS011;4725;48.384;8.984;2022-08-19T10:38:28;0.60;;;0.60;;
9370;SDS011;4725;48.384;8.984;2022-08-19T10:40:55;0.57;;;0.57;;
9370;SDS011;4725;48.384;8.984;2022-08-19T10:43:22;0.50;;;0.50;;
9370;SDS011;4725;48.384;8.984;2022-08-19T10:45:52;0.50;;;0.50;;
9370;SDS011;4725;48.384;8.984;2022-08-19T10:48:21;0.50;;;0.50;;
9370;SDS011;4725;48.384;8.984;2022-08-19T10:50:48;0.45;;;0.45;;
9370;SDS011;4725;48.384;8.984;2022-08-19T10:53:34;0.50;;;0.50;;
9370;SDS011;4725;48.384;8.984;2022-08-19T10:56:01;0.80;;;0.80;;
9370;SDS011;4725;48.384;8.984;2022-08-19T10:58:46;0.50;;;0.50;;
9370;SDS011;4725;48.384;8.984;2022-08-19T11:01:13;1.85;;;1.73;;
9370;SDS011;4725;48.384;8.984;2022-08-19T11:03:40;0.50;;;0.50;;
9370;SDS011;4725;48.384;8.984;2022-08-19T11:06:07;0.73;;;0.73;;
9370;SDS011;4725;48.384;8.984;2022-08-19T11:08:36;0.40;;;0.40;;
9370;SDS011;4725;48.384;8.984;2022-08-19T11:11:04;2.28;;;1.48;;
9370;SDS011;4725;48.384;8.984;2022-08-19T11:13:33;0.40;;;0.40;;
9370;SDS011;4725;48.384;8.984;2022-08-19T11:16:03;0.60;;;0.60;;
9370;SDS011;4725;48.384;8.984;2022-08-19T11:18:32;0.50;;;0.50;;
9370;SDS011;4725;48.384;8.984;2022-08-19T11:21:08;0.50;;;0.50;;
9370;SDS011;4725;48.384;8.984;2022-08-19T11:23:38;0.50;;;0.50;;
9370;SDS011;4725;48.384;8.984;2022-08-19T11:26:06;0.50;;;0.50;;
9370;SDS011;4725;48.384;8.984;2022-08-19T11:28:33;0.50;;;0.50;;
9370;SDS011;4725;48.384;8.984;2022-08-19T11:31:00;0.50;;;0.50;;
9370;SDS011;4725;48.384;8.984;2022-08-19T11:33:28;0.50;;;0.50;;
9370;SDS011;4725;48.384;8.984;2022-08-19T11:35:56;0.40;;;0.40;;
9370;SDS011;4725;48.384;8.984;2022-08-19T11:38:24;0.50;;;0.50;;
9370;SDS011;4725;48.384;8.984;2022-08-19T11:40:56;0.50;;;0.50;;
9370;SDS011;4725;48.384;8.984;2022-08-19T11:43:24;0.50;;;0.50;;
9370;SDS011;4725;48.384;8.984;2022-08-19T11:45:52;0.73;;;0.73;;
9370;SDS011;4725;48.384;8.984;2022-08-19T11:48:19;0.43;;;0.43;;
9370;SDS011;4725;48.384;8.984;2022-08-19T11:50:47;0.50;;;0.50;;
9370;SDS011;4725;48.384;8.984;2022-08-19T11:53:15;0.47;;;0.47;;
9370;SDS011;4725;48.384;8.984;2022-08-19T11:55:43;0.50;;;0.50;;
9370;SDS011;4725;48.384;8.984;2022-08-19T11:58:11;0.50;;;0.50;;
9370;SDS011;4725;48.384;8.984;2022-08-19T12:00:39;0.40;;;0.40;;
9370;SDS011;4725;48.384;8.984;2022-08-19T12:03:07;0.50;;;0.50;;
9370;SDS011;4725;48.384;8.984;2022-08-19T12:05:35;0.40;;;0.40;;
9370;SDS011;4725;48.384;8.984;2022-08-19T12:08:03;0.40;;;0.40;;
9370;SDS011;4725;48.384;8.984;2022-08-19T12:10:30;0.50;;;0.50;;
9370;SDS011;4725;48.384;8.984;2022-08-19T12:12:57;0.45;;;0.45;;
9370;SDS011;4725;48.384;8.984;2022-08-19T12:15:26;0.40;;;0.40;;
9370;SDS011;4725;48.384;8.984;2022-08-19T12:17:54;0.50;;;0.50;;
9370;SDS011;4725;48.384;8.984;2022-08-19T12:20:22;0.88;;;0.88;;
9370;SDS011;4725;48.384;8.984;2022-08-19T12:22:51;0.40;;;0.40;;
9370;SDS011;4725;48.384;8.984;2022-08-19T12:25:18;0.63;;;0.63;;
9370;SDS011;4725;48.384;8.984;2022-08-19T12:27:45;0.50;;;0.50;;
9370;SDS011;4725;48.384;8.984;2022-08-19T12:30:13;0.50;;;0.50;;
9370;SDS011;4725;48.384;8.984;2022-08-19T12:32:41;0.50;;;0.50;;
9370;SDS011;4725;48.384;8.984;2022-08-19T12:35:08;0.40;;;0.40;;
9370;SDS011;4725;48.384;8.984;2022-08-19T12:37:37;0.50;;;0.50;;
9370;SDS011;4725;48.384;8.984;2022-08-19T12:40:04;0.50;;;0.50;;
9370;SDS011;4725;48.384;8.984;2022-08-19T12:42:31;0.45;;;0.45;;
9370;SDS011;4725;48.384;8.984;2022-08-19T12:44:59;0.65;;;0.65;;
9370;SDS011;4725;48.384;8.984;2022-08-19T12:47:27;0.82;;;0.82;;
9370;SDS011;4725;48.384;8.984;2022-08-19T12:49:56;0.50;;;0.50;;
9370;SDS011;4725;48.384;8.984;2022-08-19T12:52:24;0.40;;;0.40;;
9370;SDS011;4725;48.384;8.984;2022-08-19T12:54:52;0.50;;;0.50;;
9370;SDS011;4725;48.384;8.984;2022-08-19T12:57:21;0.50;;;0.50;;
9370;SDS011;4725;48.384;8.984;2022-08-19T12:59:51;0.63;;;0.63;;
9370;SDS011;4725;48.384;8.984;2022-08-19T13:02:19;1.20;;;0.80;;
9370;SDS011;4725;48.384;8.984;2022-08-19T13:04:47;0.57;;;0.57;;
9370;SDS011;4725;48.384;8.984;2022-08-19T13:07:15;0.50;;;0.50;;
9370;SDS011;4725;48.384;8.984;2022-08-19T13:09:42;0.63;;;0.63;;
9370;SDS011;4725;48.384;8.984;2022-08-19T13:12:09;0.50;;;0.50;;
9370;SDS011;4725;48.384;8.984;2022-08-19T13:14:38;0.43;;;0.43;;
9370;SDS011;4725;48.384;8.984;2022-08-19T13:17:06;0.50;;;0.50;;
9370;SDS011;4725;48.384;8.984;2022-08-19T13:19:35;0.40;;;0.40;;
9370;SDS011;4725;48.384;8.984;2022-08-19T13:22:03;0.50;;;0.50;;
9370;SDS011;4725;48.384;8.984;2022-08-19T13:24:31;0.50;;;0.50;;
9370;SDS011;4725;48.384;8.984;2022-08-19T13:26:58;0.50;;;0.50;;
9370;SDS011;4725;48.384;8.984;2022-08-19T13:29:25;0.50;;;0.50;;
9370;SDS011;4725;48.384;8.984;2022-08-19T13:32:18;0.50;;;0.50;;
9370;SDS011;4725;48.384;8.984;2022-08-19T13:35:03;0.65;;;0.65;;
9370;SDS011;4725;48.384;8.984;2022-08-19T13:37:31;0.57;;;0.57;;
9370;SDS011;4725;48.384;8.984;2022-08-19T13:40:09;0.50;;;0.50;;
9370;SDS011;4725;48.384;8.984;2022-08-19T13:42:39;0.50;;;0.50;;
9370;SDS011;4725;48.384;8.984;2022-08-19T13:45:07;0.47;;;0.47;;
9370;SDS011;4725;48.384;8.984;2022-08-19T13:47:35;0.50;;;0.50;;
9370;SDS011;4725;48.384;8.984;2022-08-19T13:50:08;0.50;;;0.50;;
9370;SDS011;4725;48.384;8.984;2022-08-19T13:52:36;0.50;;;0.50;;
9370;SDS011;4725;48.384;8.984;2022-08-19T13:55:03;0.50;;;0.50;;
9370;SDS011;4725;48.384;8.984;2022-08-19T13:57:32;0.50;;;0.50;;
9370;SDS011;4725;48.384;8.984;2022-08-19T14:00:00;0.50;;;0.50;;
9370;SDS011;4725;48.384;8.984;2022-08-19T14:02:30;0.55;;;0.55;;
9370;SDS011;4725;48.384;8.984;2022-08-19T14:04:57;0.50;;;0.50;;
9370;SDS011;4725;48.384;8.984;2022-08-19T14:07:25;0.40;;;0.40;;
9370;SDS011;4725;48.384;8.984;2022-08-19T14:09:52;0.50;;;0.50;;
9370;SDS011;4725;48.384;8.984;2022-08-19T14:12:19;1.92;;;1.80;;
9370;SDS011;4725;48.384;8.984;2022-08-19T14:14:49;0.75;;;0.70;;
9370;SDS011;4725;48.384;8.984;2022-08-19T14:17:16;0.50;;;0.50;;
9370;SDS011;4725;48.384;8.984;2022-08-19T14:19:43;0.50;;;0.50;;
9370;SDS011;4725;48.384;8.984;2022-08-19T14:22:10;1.35;;;1.25;;
9370;SDS011;4725;48.384;8.984;2022-08-19T14:24:37;0.50;;;0.50;;
9370;SDS011;4725;48.384;8.984;2022-08-19T14:27:05;0.50;;;0.50;;
9370;SDS011;4725;48.384;8.984;2022-08-19T14:29:32;0.50;;;0.50;;
9370;SDS011;4725;48.384;8.984;2022-08-19T14:32:01;1.02;;;1.02;;
9370;SDS011;4725;48.384;8.984;2022-08-19T14:34:28;0.60;;;0.60;;
9370;SDS011;4725;48.384;8.984;2022-08-19T14:36:56;0.57;;;0.57;;
9370;SDS011;4725;48.384;8.984;2022-08-19T14:39:23;0.60;;;0.60;;
9370;SDS011;4725;48.384;8.984;2022-08-19T14:41:50;0.50;;;0.50;;
9370;SDS011;4725;48.384;8.984;2022-08-19T14:44:17;0.50;;;0.50;;
9370;SDS011;4725;48.384;8.984;2022-08-19T14:46:44;0.50;;;0.50;;
9370;SDS011;4725;48.384;8.984;2022-08-19T14:49:13;0.50;;;0.50;;
9370;SDS011;4725;48.384;8.984;2022-08-19T14:51:40;0.50;;;0.50;;
9370;SDS011;4725;48.384;8.984;2022-08-19T14:54:06;6.57;;;1.85;;
9370;SDS011;4725;48.384;8.984;2022-08-19T14:56:33;0.50;;;0.50;;
9370;SDS011;4725;48.384;8.984;2022-08-19T14:59:01;0.80;;;0.80;;
9370;SDS011;4725;48.384;8.984;2022-08-19T15:01:28;1.65;;;1.48;;
9370;SDS011;4725;48.384;8.984;2022-08-19T15:03:55;0.50;;;0.50;;
9370;SDS011;4725;48.384;8.984;2022-08-19T15:06:23;0.50;;;0.50;;
9370;SDS011;4725;48.384;8.984;2022-08-19T15:08:51;0.50;;;0.50;;
9370;SDS011;4725;48.384;8.984;2022-08-19T15:11:20;0.50;;;0.50;;
9370;SDS011;4725;48.384;8.984;2022-08-19T15:13:48;0.52;;;0.52;;
9370;SDS011;4725;48.384;8.984;2022-08-19T15:16:16;0.60;;;0.60;;
9370;SDS011;4725;48.384;8.984;2022-08-19T15:18:43;0.60;;;0.60;;
9370;SDS011;4725;48.384;8.984;2022-08-19T15:21:11;0.60;;;0.60;;
9370;SDS011;4725;48.384;8.984;2022-08-19T15:23:42;17.80;;;12.95;;
9370;SDS011;4725;48.384;8.984;2022-08-19T15:26:10;16.13;;;12.98;;